Time;durP1;ratioP1;P1;durP2;ratioP2;P2;SDS_P1;SDS_P2;PMS_P1;PMS_P2;Temp;Humidity;BMP_temperature;BMP_pressure;BME280_temperature;BME280_humidity;BME280_pressure;Samples;Min_cycle;Max_cycle;Signal;HPM_P1;HPM_P2
2023/11/03 00:02:22;;;;;;;2.00;0.80;;;13.20;99.90;;;;;;5052456;28;20524;-42
2023/11/03 00:04:48;;;;;;;1.33;0.73;;;13.20;99.90;;;;;;5052642;28;20032;-40
2023/11/03 00:07:14;;;;;;;2.08;0.60;;;13.30;99.90;;;;;;5052843;28;20386;-40
2023/11/03 00:09:40;;;;;;;1.52;0.73;;;13.20;99.90;;;;;;5052484;28;20029;-39
2023/11/03 00:12:07;;;;;;;2.00;0.82;;;13.20;99.90;;;;;;5052578;28;20040;-40
2023/11/03 00:14:35;;;;;;;3.08;0.80;;;13.20;99.90;;;;;;5035213;28;20025;-39
2023/11/03 00:17:01;;;;;;;3.08;0.90;;;13.20;99.90;;;;;;5052094;28;20466;-41
2023/11/03 00:19:27;;;;;;;1.02;0.73;;;13.20;99.90;;;;;;5053153;28;20021;-40
2023/11/03 00:21:54;;;;;;;1.48;0.82;;;13.20;99.90;;;;;;5052042;28;20025;-39
2023/11/03 00:24:20;;;;;;;1.40;0.80;;;13.20;99.90;;;;;;5053166;28;20033;-39
2023/11/03 00:26:54;;;;;;;2.65;1.00;;;13.20;99.90;;;;;;5052143;28;20037;-39
2023/11/03 00:29:24;;;;;;;2.13;1.00;;;13.20;99.90;;;;;;5052501;28;20263;-36
2023/11/03 00:31:50;;;;;;;2.17;0.90;;;13.20;99.90;;;;;;5051986;28;20024;-39
2023/11/03 00:34:17;;;;;;;2.85;0.75;;;13.20;99.90;;;;;;5052524;28;20121;-42
2023/11/03 00:36:45;;;;;;;2.13;0.70;;;13.20;99.90;;;;;;5051834;28;20040;-40
2023/11/03 00:39:15;;;;;;;1.67;0.75;;;13.20;99.90;;;;;;5052020;28;20082;-44
2023/11/03 00:41:47;;;;;;;2.45;0.90;;;13.20;99.90;;;;;;5051903;28;20086;-39
2023/11/03 00:44:12;;;;;;;1.35;0.60;;;13.20;99.90;;;;;;5052301;28;20021;-43
2023/11/03 00:46:39;;;;;;;1.60;0.65;;;13.20;99.90;;;;;;5052059;28;20021;-39
2023/11/03 00:49:07;;;;;;;3.95;1.05;;;13.20;99.90;;;;;;5051964;28;20033;-38
2023/11/03 00:51:33;;;;;;;2.15;0.93;;;13.20;99.90;;;;;;5051358;28;20083;-40
2023/11/03 00:54:00;;;;;;;2.42;1.10;;;13.20;99.90;;;;;;5052669;28;20086;-39
2023/11/03 00:56:27;;;;;;;3.60;1.00;;;13.10;99.90;;;;;;5052145;28;20029;-39
2023/11/03 00:58:53;;;;;;;3.28;0.90;;;13.10;99.90;;;;;;5052243;28;20402;-40
2023/11/03 01:01:19;;;;;;;2.60;0.90;;;13.10;99.90;;;;;;5052201;28;20021;-40
2023/11/03 01:03:44;;;;;;;3.70;1.00;;;13.10;99.90;;;;;;5051962;28;20104;-42
2023/11/03 01:06:13;;;;;;;5.95;1.00;;;13.10;99.90;;;;;;5051985;28;20029;-40
2023/11/03 01:08:39;;;;;;;2.35;0.85;;;13.10;99.90;;;;;;5051703;28;20111;-36
2023/11/03 01:11:09;;;;;;;2.42;0.80;;;13.10;99.90;;;;;;5051828;28;20725;-36
2023/11/03 01:13:37;;;;;;;1.95;0.88;;;13.10;99.90;;;;;;5051616;28;20024;-36
2023/11/03 01:16:08;;;;;;;2.53;0.75;;;13.10;99.90;;;;;;5051320;28;20052;-36
2023/11/03 01:18:39;;;;;;;1.45;0.80;;;13.10;99.90;;;;;;5051676;28;20028;-40
2023/11/03 01:21:12;;;;;;;2.40;0.82;;;13.10;99.90;;;;;;5051884;28;20043;-40
2023/11/03 01:23:48;;;;;;;2.20;0.93;;;13.10;99.90;;;;;;5051875;28;20056;-39
2023/11/03 01:26:15;;;;;;;2.28;0.73;;;13.10;99.90;;;;;;5051244;28;20028;-42
2023/11/03 01:28:41;;;;;;;3.63;0.88;;;13.10;99.90;;;;;;5051248;28;20390;-39
2023/11/03 01:31:10;;;;;;;2.40;0.70;;;13.10;99.90;;;;;;5052047;28;20017;-40
2023/11/03 01:33:35;;;;;;;1.52;0.68;;;13.10;99.90;;;;;;5051598;28;20232;-40
2023/11/03 01:36:04;;;;;;;1.73;0.85;;;13.10;99.90;;;;;;5051472;28;20397;-39
2023/11/03 01:38:34;;;;;;;2.28;0.60;;;13.10;99.90;;;;;;5051475;28;20025;-36
2023/11/03 01:41:00;;;;;;;4.35;1.00;;;13.10;99.90;;;;;;5033345;28;20095;-39
2023/11/03 01:43:27;;;;;;;1.25;0.70;;;13.10;99.90;;;;;;5051501;28;20031;-42
2023/11/03 01:45:52;;;;;;;1.58;0.77;;;13.10;99.90;;;;;;5052097;28;20017;-38
2023/11/03 01:48:18;;;;;;;2.28;0.73;;;13.10;99.90;;;;;;5051963;28;20024;-36
2023/11/03 01:50:44;;;;;;;1.73;0.73;;;13.10;99.90;;;;;;5051027;28;20013;-42
2023/11/03 01:53:13;;;;;;;2.30;0.82;;;13.10;99.90;;;;;;5051417;28;20036;-40
2023/11/03 01:55:39;;;;;;;1.65;0.85;;;13.10;99.90;;;;;;5033288;28;20386;-39
2023/11/03 01:58:05;;;;;;;2.08;0.85;;;13.10;99.90;;;;;;5051233;28;20033;-41
2023/11/03 02:00:31;;;;;;;2.70;1.10;;;13.10;99.90;;;;;;5051586;28;20394;-40
2023/11/03 02:02:56;;;;;;;1.45;0.63;;;13.10;99.90;;;;;;5051384;28;20044;-43
2023/11/03 02:05:22;;;;;;;3.22;0.88;;;13.10;99.90;;;;;;5051308;28;20021;-39
2023/11/03 02:07:48;;;;;;;4.70;1.05;;;13.10;99.90;;;;;;5051412;28;20036;-39
2023/11/03 02:10:14;;;;;;;1.52;0.70;;;13.10;99.90;;;;;;5050759;28;20070;-37
2023/11/03 02:12:40;;;;;;;2.08;0.82;;;13.10;99.90;;;;;;5051902;28;20025;-39
2023/11/03 02:15:06;;;;;;;3.03;0.80;;;13.00;99.90;;;;;;5051380;28;20033;-40
2023/11/03 02:17:33;;;;;;;1.85;0.85;;;13.10;99.90;;;;;;5051399;28;20029;-37
2023/11/03 02:19:58;;;;;;;2.58;0.90;;;13.00;99.90;;;;;;5051996;28;20056;-36
2023/11/03 02:22:24;;;;;;;1.00;0.60;;;13.00;99.90;;;;;;5054886;28;20060;-40
2023/11/03 02:24:49;;;;;;;2.40;0.80;;;13.00;99.90;;;;;;5054431;28;20025;-37
2023/11/03 02:27:15;;;;;;;2.45;0.80;;;13.00;99.90;;;;;;5055371;28;20086;-42
2023/11/03 02:29:41;;;;;;;2.75;1.05;;;13.00;99.90;;;;;;5055572;28;20085;-42
2023/11/03 02:32:06;;;;;;;2.80;0.90;;;13.00;99.90;;;;;;5054779;28;20444;-40
2023/11/03 02:34:32;;;;;;;3.72;1.02;;;13.10;99.90;;;;;;5054867;28;20370;-36
2023/11/03 02:36:57;;;;;;;2.25;0.77;;;13.00;99.90;;;;;;5054746;28;20029;-37
2023/11/03 02:39:25;;;;;;;2.83;0.88;;;13.00;99.90;;;;;;5055347;28;20041;-40
2023/11/03 02:41:51;;;;;;;2.03;0.90;;;13.00;99.90;;;;;;5054236;28;20035;-42
2023/11/03 02:44:16;;;;;;;2.92;0.73;;;13.00;99.90;;;;;;5055765;28;20092;-42
2023/11/03 02:46:45;;;;;;;1.48;0.50;;;13.00;99.90;;;;;;5055146;28;20021;-40
2023/11/03 02:49:11;;;;;;;1.95;0.88;;;13.00;99.90;;;;;;5054963;28;20104;-36
2023/11/03 02:51:37;;;;;;;1.35;0.75;;;13.00;99.90;;;;;;5054906;28;20059;-36
2023/11/03 02:54:03;;;;;;;2.70;0.93;;;13.00;99.90;;;;;;5054232;28;20111;-39
2023/11/03 02:56:29;;;;;;;7.88;1.08;;;13.00;99.90;;;;;;5054079;28;20160;-39
2023/11/03 02:58:54;;;;;;;1.45;0.77;;;12.90;99.90;;;;;;5054860;28;20037;-39
2023/11/03 03:01:36;;;;;;;1.65;0.85;;;13.00;99.90;;;;;;5053607;28;20032;-40
2023/11/03 03:04:02;;;;;;;1.67;0.77;;;13.00;99.90;;;;;;5054311;28;20394;-40
2023/11/03 03:06:28;;;;;;;2.38;0.80;;;13.00;99.90;;;;;;5054466;28;20021;-40
2023/11/03 03:08:54;;;;;;;2.42;0.80;;;13.00;99.90;;;;;;5054845;28;20433;-38
2023/11/03 03:11:20;;;;;;;3.63;0.60;;;13.00;99.90;;;;;;5053982;28;20033;-38
2023/11/03 03:13:45;;;;;;;2.03;0.88;;;12.90;99.90;;;;;;5054296;28;20051;-37
2023/11/03 03:16:17;;;;;;;2.22;1.10;;;13.00;99.90;;;;;;5053944;28;20117;-39
2023/11/03 03:18:42;;;;;;;1.98;0.68;;;12.90;99.90;;;;;;5055312;28;20025;-39
2023/11/03 03:21:08;;;;;;;2.88;0.77;;;12.90;99.90;;;;;;5054225;28;20115;-42
2023/11/03 03:23:34;;;;;;;2.60;0.80;;;13.00;99.90;;;;;;5054453;28;20079;-42
2023/11/03 03:25:59;;;;;;;1.80;0.60;;;12.90;99.90;;;;;;5054707;28;20103;-42
2023/11/03 03:28:25;;;;;;;2.70;0.70;;;12.90;99.90;;;;;;5036091;28;20028;-41
2023/11/03 03:30:51;;;;;;;1.52;0.73;;;13.00;99.90;;;;;;5053231;28;20025;-40
2023/11/03 03:33:17;;;;;;;1.73;0.70;;;12.90;99.90;;;;;;5053627;28;20095;-39
2023/11/03 03:35:43;;;;;;;2.20;0.73;;;12.90;99.90;;;;;;5053245;28;20036;-40
2023/11/03 03:38:08;;;;;;;2.42;0.80;;;12.90;99.90;;;;;;5054020;28;20025;-39
2023/11/03 03:40:34;;;;;;;2.53;0.80;;;12.90;99.90;;;;;;5053329;28;20040;-38
2023/11/03 03:43:01;;;;;;;2.95;0.80;;;13.00;99.90;;;;;;5052930;28;20032;-42
2023/11/03 03:45:26;;;;;;;2.00;0.80;;;12.90;99.90;;;;;;5052874;28;20363;-36
2023/11/03 03:47:52;;;;;;;1.38;0.50;;;12.90;99.90;;;;;;5052900;28;20029;-41
2023/11/03 03:50:17;;;;;;;2.50;0.60;;;12.90;99.90;;;;;;5052825;28;20503;-39
2023/11/03 03:52:43;;;;;;;1.55;0.50;;;12.90;99.90;;;;;;5052617;28;20047;-40
2023/11/03 03:55:09;;;;;;;2.00;0.70;;;12.90;99.90;;;;;;5053450;28;20029;-35
2023/11/03 03:57:34;;;;;;;2.05;0.60;;;12.90;99.90;;;;;;5035605;28;20116;-39
2023/11/03 04:00:00;;;;;;;2.58;0.80;;;12.90;99.90;;;;;;5052758;28;20021;-40
2023/11/03 04:02:25;;;;;;;1.67;0.98;;;12.90;99.90;;;;;;5053307;28;20057;-39
2023/11/03 04:04:51;;;;;;;2.08;0.80;;;12.90;99.90;;;;;;5052673;28;20450;-39
2023/11/03 04:07:17;;;;;;;1.80;0.77;;;12.90;99.90;;;;;;5053123;28;20029;-42
2023/11/03 04:09:43;;;;;;;6.32;0.88;;;12.90;99.90;;;;;;5052348;28;20102;-36
2023/11/03 04:12:08;;;;;;;1.65;0.65;;;12.90;99.90;;;;;;5052500;28;20107;-39
2023/11/03 04:14:34;;;;;;;2.55;0.80;;;12.90;99.90;;;;;;5052719;28;20043;-41
2023/11/03 04:16:59;;;;;;;2.40;0.90;;;12.90;99.90;;;;;;5052676;28;20096;-39
2023/11/03 04:19:25;;;;;;;0.95;0.60;;;12.90;99.90;;;;;;5053012;28;20553;-41
2023/11/03 04:21:51;;;;;;;1.35;0.65;;;12.90;99.90;;;;;;5052504;28;20382;-35
2023/11/03 04:24:16;;;;;;;1.60;0.70;;;12.90;99.90;;;;;;5034162;28;20056;-39
2023/11/03 04:26:42;;;;;;;2.28;0.70;;;12.90;99.90;;;;;;5053227;28;20051;-38
2023/11/03 04:29:07;;;;;;;1.50;0.88;;;12.90;99.90;;;;;;5052123;28;20021;-44
2023/11/03 04:31:34;;;;;;;1.90;0.68;;;12.90;99.90;;;;;;5052406;28;20494;-36
2023/11/03 04:34:00;;;;;;;2.75;0.80;;;12.90;99.90;;;;;;5052104;28;20025;-39
2023/11/03 04:36:26;;;;;;;2.05;0.73;;;12.90;99.90;;;;;;5052306;28;20090;-36
2023/11/03 04:38:51;;;;;;;2.55;0.88;;;12.90;99.90;;;;;;5052454;28;20028;-39
2023/11/03 04:41:18;;;;;;;1.52;0.63;;;12.90;99.90;;;;;;5052872;28;20048;-39
2023/11/03 04:43:44;;;;;;;2.17;0.90;;;12.90;99.90;;;;;;5051457;28;20500;-35
2023/11/03 04:46:10;;;;;;;1.67;0.60;;;12.90;99.90;;;;;;5053403;28;20428;-42
2023/11/03 04:48:37;;;;;;;3.65;1.10;;;12.90;99.90;;;;;;5052987;28;20028;-36
2023/11/03 04:51:03;;;;;;;2.17;0.80;;;12.90;99.90;;;;;;5052718;28;20028;-40
2023/11/03 04:53:29;;;;;;;1.40;0.70;;;12.90;99.90;;;;;;5052634;28;20025;-40
2023/11/03 04:55:54;;;;;;;2.25;0.90;;;12.90;99.90;;;;;;5052883;28;20029;-39
2023/11/03 04:58:20;;;;;;;1.65;0.70;;;12.90;99.90;;;;;;5052623;28;20025;-40
2023/11/03 05:00:47;;;;;;;2.45;0.75;;;12.90;99.90;;;;;;5053129;28;20209;-41
2023/11/03 05:03:14;;;;;;;2.10;0.80;;;12.90;99.90;;;;;;5051445;28;20031;-39
2023/11/03 05:05:40;;;;;;;0.95;0.45;;;12.90;99.90;;;;;;5051335;28;20025;-41
2023/11/03 05:08:05;;;;;;;1.65;0.90;;;12.90;99.90;;;;;;5051319;28;20444;-41
2023/11/03 05:10:32;;;;;;;1.70;0.85;;;12.90;99.90;;;;;;5051436;28;20048;-40
2023/11/03 05:12:58;;;;;;;4.60;1.00;;;12.90;99.90;;;;;;5051466;28;20032;-36
2023/11/03 05:15:24;;;;;;;2.15;0.70;;;12.90;99.90;;;;;;5051933;28;20026;-39
2023/11/03 05:17:49;;;;;;;3.63;0.80;;;12.90;99.90;;;;;;5051839;28;20104;-40
2023/11/03 05:20:15;;;;;;;2.15;0.80;;;12.90;99.90;;;;;;5051642;28;20052;-39
2023/11/03 05:22:41;;;;;;;1.58;0.80;;;12.90;99.90;;;;;;5050874;28;20509;-36
2023/11/03 05:25:07;;;;;;;1.77;0.65;;;12.90;99.90;;;;;;5051244;28;20029;-42
2023/11/03 05:27:33;;;;;;;1.25;0.80;;;12.90;99.90;;;;;;5051653;28;20017;-36
2023/11/03 05:29:59;;;;;;;1.58;0.88;;;12.90;99.90;;;;;;5051644;28;20422;-36
2023/11/03 05:32:25;;;;;;;1.70;0.55;;;12.80;99.90;;;;;;5051380;28;20025;-39
2023/11/03 05:34:50;;;;;;;1.13;0.57;;;12.80;99.90;;;;;;5051280;28;20031;-40
2023/11/03 05:37:16;;;;;;;1.40;0.60;;;12.80;99.90;;;;;;5052098;28;20028;-39
2023/11/03 05:39:42;;;;;;;1.45;0.60;;;12.80;99.90;;;;;;5052194;28;20068;-39
2023/11/03 05:42:07;;;;;;;4.78;0.90;;;12.80;99.90;;;;;;5050915;28;20232;-39
2023/11/03 05:44:33;;;;;;;0.95;0.60;;;12.80;99.90;;;;;;5051676;28;20025;-39
2023/11/03 05:47:00;;;;;;;2.58;0.80;;;12.80;99.90;;;;;;5051144;28;20431;-39
2023/11/03 05:49:27;;;;;;;1.70;0.70;;;12.80;99.90;;;;;;5051266;28;20116;-42
2023/11/03 05:51:53;;;;;;;2.05;0.68;;;12.80;99.90;;;;;;5051400;28;20040;-39
2023/11/03 05:54:18;;;;;;;1.27;0.80;;;12.80;99.90;;;;;;5053040;28;20037;-39
2023/11/03 05:56:44;;;;;;;2.47;1.17;;;12.80;99.90;;;;;;5055247;28;20462;-39
2023/11/03 05:59:11;;;;;;;1.63;0.80;;;12.80;99.90;;;;;;5055724;28;20033;-39
2023/11/03 06:01:36;;;;;;;3.03;0.90;;;12.80;99.90;;;;;;5054887;28;20055;-45
2023/11/03 06:04:02;;;;;;;1.23;0.80;;;12.80;99.90;;;;;;5054999;28;20057;-39
2023/11/03 06:06:28;;;;;;;4.60;1.35;;;12.80;99.90;;;;;;5054875;28;20466;-39
2023/11/03 06:08:55;;;;;;;1.75;0.70;;;12.80;99.90;;;;;;5055127;28;20036;-42
2023/11/03 06:11:22;;;;;;;3.45;1.05;;;12.80;99.90;;;;;;5055208;28;20513;-40
2023/11/03 06:13:48;;;;;;;1.42;0.85;;;12.80;99.90;;;;;;5056251;28;20102;-38
2023/11/03 06:16:14;;;;;;;3.20;1.00;;;12.80;99.90;;;;;;5055380;28;20043;-39
2023/11/03 06:18:41;;;;;;;2.50;0.90;;;12.80;99.90;;;;;;5055325;28;20024;-39
2023/11/03 06:21:07;;;;;;;2.45;0.80;;;12.80;99.90;;;;;;5054787;28;20021;-40
2023/11/03 06:23:33;;;;;;;2.70;1.08;;;12.80;99.90;;;;;;5055460;28;20025;-39
2023/11/03 06:25:58;;;;;;;1.80;0.90;;;12.80;99.90;;;;;;5054939;28;20024;-41
2023/11/03 06:28:24;;;;;;;1.60;0.90;;;12.80;99.90;;;;;;5054463;28;20359;-41
2023/11/03 06:30:50;;;;;;;3.53;1.10;;;12.80;99.90;;;;;;5054347;28;20025;-39
2023/11/03 06:33:15;;;;;;;2.53;1.10;;;12.80;99.90;;;;;;5054229;28;20029;-39
2023/11/03 06:35:41;;;;;;;3.45;0.80;;;12.80;99.90;;;;;;5054959;28;20060;-41
2023/11/03 06:38:07;;;;;;;2.33;0.90;;;12.80;99.90;;;;;;5054114;28;20106;-39
2023/11/03 06:40:33;;;;;;;2.30;1.00;;;12.80;99.90;;;;;;5054169;28;20025;-38
2023/11/03 06:42:59;;;;;;;3.08;1.00;;;12.80;99.90;;;;;;5053922;28;20047;-36
2023/11/03 06:45:25;;;;;;;2.45;1.10;;;12.80;99.90;;;;;;5054360;28;20441;-38
2023/11/03 06:47:50;;;;;;;2.65;0.90;;;12.80;99.90;;;;;;5054721;28;20025;-37
2023/11/03 06:50:16;;;;;;;1.67;0.80;;;12.80;99.90;;;;;;5055060;28;20100;-39
2023/11/03 06:52:42;;;;;;;2.08;0.98;;;12.80;99.90;;;;;;5054286;28;20047;-41
2023/11/03 06:55:08;;;;;;;3.58;0.93;;;12.80;99.90;;;;;;5054480;28;20055;-39
2023/11/03 06:57:38;;;;;;;2.35;0.95;;;12.80;99.90;;;;;;5054180;28;20017;-39
2023/11/03 07:00:04;;;;;;;2.40;0.85;;;12.80;99.90;;;;;;5054273;28;20029;-37
2023/11/03 07:02:31;;;;;;;3.45;1.00;;;12.80;99.90;;;;;;5054638;28;20086;-36
2023/11/03 07:04:56;;;;;;;1.90;0.90;;;12.80;99.90;;;;;;5053689;28;20048;-37
2023/11/03 07:07:23;;;;;;;2.78;0.88;;;12.80;99.90;;;;;;5053137;28;20052;-37
2023/11/03 07:09:48;;;;;;;3.65;0.93;;;12.80;99.90;;;;;;5053694;28;20512;-38
2023/11/03 07:12:14;;;;;;;2.53;1.10;;;12.80;99.90;;;;;;5053418;28;20032;-42
2023/11/03 07:14:40;;;;;;;1.80;0.82;;;12.80;99.90;;;;;;5053993;28;20052;-42
2023/11/03 07:17:05;;;;;;;2.58;0.90;;;12.80;99.90;;;;;;5054627;28;20036;-42
2023/11/03 07:19:32;;;;;;;2.80;0.95;;;12.80;99.90;;;;;;5054339;28;20040;-42
2023/11/03 07:21:58;;;;;;;2.28;0.80;;;12.80;99.90;;;;;;5054156;28;20029;-39
2023/11/03 07:24:23;;;;;;;1.80;0.70;;;12.80;99.90;;;;;;5053817;28;20032;-40
2023/11/03 07:26:53;;;;;;;3.22;0.80;;;12.80;99.90;;;;;;5054045;28;20017;-42
2023/11/03 07:29:19;;;;;;;1.30;0.80;;;12.80;99.90;;;;;;5054530;28;20393;-38
2023/11/03 07:31:46;;;;;;;3.08;0.90;;;12.80;99.90;;;;;;5053882;28;20028;-41
2023/11/03 07:34:12;;;;;;;1.50;0.90;;;12.80;99.90;;;;;;5053271;28;20028;-41
2023/11/03 07:36:39;;;;;;;3.97;0.90;;;12.80;99.90;;;;;;5054460;28;20027;-39
2023/11/03 07:39:06;;;;;;;2.13;0.90;;;12.80;99.90;;;;;;5053475;28;20537;-40
2023/11/03 07:41:33;;;;;;;2.33;0.90;;;12.80;99.90;;;;;;5053622;28;20041;-38
2023/11/03 07:44:00;;;;;;;3.17;0.85;;;12.80;99.90;;;;;;5053403;28;20025;-41
2023/11/03 07:46:25;;;;;;;3.88;0.82;;;12.70;99.90;;;;;;5053928;28;20036;-36
2023/11/03 07:48:53;;;;;;;2.15;0.82;;;12.70;99.90;;;;;;5054584;28;20029;-39
2023/11/03 07:51:21;;;;;;;2.70;0.90;;;12.70;99.90;;;;;;5053279;28;20017;-42
2023/11/03 07:53:46;;;;;;;1.90;0.73;;;12.70;99.90;;;;;;5054112;28;20055;-36
2023/11/03 07:56:12;;;;;;;2.08;0.80;;;12.70;99.90;;;;;;5052797;28;20025;-37
2023/11/03 07:58:37;;;;;;;3.35;0.88;;;12.70;99.90;;;;;;5053518;28;20385;-41
2023/11/03 08:01:05;;;;;;;2.00;0.90;;;12.80;99.90;;;;;;5052646;28;20114;-39
2023/11/03 08:03:31;;;;;;;2.70;0.70;;;12.70;99.90;;;;;;5052483;28;20028;-41
2023/11/03 08:05:58;;;;;;;2.72;0.95;;;12.70;99.90;;;;;;5053337;28;20044;-39
2023/11/03 08:08:25;;;;;;;1.52;0.70;;;12.80;99.90;;;;;;5053824;28;20398;-42
2023/11/03 08:10:52;;;;;;;3.75;1.00;;;12.70;99.90;;;;;;5053195;28;20021;-44
2023/11/03 08:13:22;;;;;;;2.15;0.88;;;12.80;99.90;;;;;;5052779;28;20074;-38
2023/11/03 08:15:48;;;;;;;1.92;0.90;;;12.70;99.90;;;;;;5052534;28;20056;-41
2023/11/03 08:18:13;;;;;;;2.60;0.90;;;12.70;99.90;;;;;;5052563;28;20025;-42
2023/11/03 08:20:39;;;;;;;1.80;0.65;;;12.80;99.90;;;;;;5052776;28;20031;-39
2023/11/03 08:23:05;;;;;;;2.08;0.80;;;12.80;99.90;;;;;;5052360;28;20033;-39
2023/11/03 08:25:31;;;;;;;1.50;0.70;;;12.80;99.90;;;;;;5052541;28;20466;-40
2023/11/03 08:27:57;;;;;;;2.90;0.80;;;12.80;99.90;;;;;;5052091;28;20466;-38
2023/11/03 08:30:23;;;;;;;1.60;0.70;;;12.70;99.90;;;;;;5052656;28;20104;-40
2023/11/03 08:32:50;;;;;;;3.08;0.70;;;12.80;99.90;;;;;;5053608;28;20059;-39
2023/11/03 08:35:22;;;;;;;2.22;1.00;;;12.80;99.90;;;;;;5053023;28;20036;-36
2023/11/03 08:37:52;;;;;;;1.95;0.88;;;12.80;99.90;;;;;;5052523;28;20053;-37
2023/11/03 08:40:20;;;;;;;2.10;0.75;;;12.70;99.90;;;;;;5053140;28;20059;-42
2023/11/03 08:42:46;;;;;;;1.50;0.70;;;12.80;99.90;;;;;;5052595;28;20078;-39
2023/11/03 08:45:12;;;;;;;1.80;0.77;;;12.80;99.90;;;;;;5035001;28;20017;-42
2023/11/03 08:47:41;;;;;;;2.03;0.80;;;12.80;99.90;;;;;;5052564;28;20082;-40
2023/11/03 08:50:11;;;;;;;1.48;0.80;;;12.80;99.90;;;;;;5052748;28;20057;-38
2023/11/03 08:52:37;;;;;;;2.05;0.75;;;12.80;99.90;;;;;;5052484;28;20033;-42
2023/11/03 08:55:07;;;;;;;1.65;0.88;;;12.80;99.90;;;;;;5052846;28;20025;-41
2023/11/03 08:57:36;;;;;;;1.17;0.63;;;12.80;99.90;;;;;;5051588;28;20048;-39
2023/11/03 09:00:09;;;;;;;1.48;0.70;;;12.80;99.90;;;;;;5051562;28;20074;-38
2023/11/03 09:02:44;;;;;;;2.17;0.60;;;12.80;99.90;;;;;;5051746;28;20036;-37
2023/11/03 09:05:11;;;;;;;1.75;0.60;;;12.80;99.90;;;;;;5053459;28;20013;-36
2023/11/03 09:07:38;;;;;;;2.38;0.80;;;12.80;99.90;;;;;;5053091;28;20021;-37
2023/11/03 09:10:06;;;;;;;2.88;0.80;;;12.80;99.90;;;;;;5052269;28;20028;-43
2023/11/03 09:12:34;;;;;;;1.17;0.80;;;12.80;99.90;;;;;;5052004;28;20068;-39
2023/11/03 09:15:03;;;;;;;2.00;0.63;;;12.80;99.90;;;;;;5052454;28;20025;-36
2023/11/03 09:17:32;;;;;;;2.38;0.60;;;12.80;99.90;;;;;;5051245;28;20028;-42
2023/11/03 09:20:00;;;;;;;1.27;0.65;;;12.80;99.90;;;;;;5052458;28;20170;-42
2023/11/03 09:22:27;;;;;;;1.70;0.70;;;12.80;99.90;;;;;;5051058;28;20025;-42
2023/11/03 09:24:56;;;;;;;1.67;0.80;;;12.80;99.90;;;;;;5051909;28;20481;-36
2023/11/03 09:27:26;;;;;;;1.77;0.70;;;12.80;99.90;;;;;;5051095;28;20021;-39
2023/11/03 09:29:52;;;;;;;4.57;1.13;;;12.80;99.90;;;;;;5051322;28;20021;-42
2023/11/03 09:32:18;;;;;;;3.83;1.27;;;12.80;99.90;;;;;;5051401;28;20437;-41
2023/11/03 09:34:46;;;;;;;5.10;1.20;;;12.50;99.90;;;;;;5052352;28;20154;-39
2023/11/03 09:37:13;;;;;;;3.30;1.10;;;12.30;99.90;;;;;;5051098;28;20021;-37
2023/11/03 09:39:39;;;;;;;3.83;0.93;;;12.30;99.90;;;;;;5051229;28;20037;-39
2023/11/03 09:42:06;;;;;;;2.05;0.70;;;12.40;99.90;;;;;;5034089;28;20078;-40
2023/11/03 09:44:32;;;;;;;2.88;1.02;;;12.30;99.90;;;;;;5051669;28;20071;-39
2023/11/03 09:47:02;;;;;;;3.30;0.90;;;12.40;99.90;;;;;;5052118;28;20056;-40
2023/11/03 09:49:28;;;;;;;2.33;0.73;;;12.50;99.90;;;;;;5053434;28;20032;-39
2023/11/03 09:52:04;;;;;;;2.65;0.85;;;12.50;99.90;;;;;;5051618;28;20052;-40
2023/11/03 09:54:35;;;;;;;5.03;0.90;;;12.50;99.90;;;;;;5052100;28;20020;-36
2023/11/03 09:57:08;;;;;;;3.35;0.98;;;12.60;99.90;;;;;;5052833;28;20471;-42
2023/11/03 09:59:35;;;;;;;4.43;0.90;;;12.60;99.90;;;;;;5051102;28;20494;-38
2023/11/03 10:02:09;;;;;;;2.38;0.88;;;12.60;99.90;;;;;;5051026;28;20028;-39
2023/11/03 10:04:38;;;;;;;4.22;1.13;;;12.60;99.90;;;;;;5050995;28;20100;-39
2023/11/03 10:07:10;;;;;;;3.33;0.95;;;12.70;99.90;;;;;;5050779;28;20021;-42
2023/11/03 10:09:37;;;;;;;2.05;0.65;;;12.70;99.90;;;;;;5052659;28;20466;-36
2023/11/03 10:12:09;;;;;;;3.17;0.70;;;12.70;99.90;;;;;;5052816;28;20036;-40
2023/11/03 10:14:34;;;;;;;3.55;0.88;;;12.80;99.90;;;;;;5051080;28;20104;-39
2023/11/03 10:17:00;;;;;;;3.42;1.08;;;12.80;99.90;;;;;;5051390;28;20044;-43
2023/11/03 10:19:27;;;;;;;3.55;1.00;;;12.90;99.90;;;;;;5050829;28;20036;-41
2023/11/03 10:21:54;;;;;;;1.33;0.60;;;12.90;99.90;;;;;;5050725;28;20028;-36
2023/11/03 10:24:23;;;;;;;2.28;0.80;;;12.90;99.90;;;;;;5051188;28;20017;-38
2023/11/03 10:26:52;;;;;;;1.60;0.60;;;13.00;99.90;;;;;;5050770;28;20355;-41
2023/11/03 10:29:18;;;;;;;2.30;1.00;;;13.00;99.90;;;;;;5052002;28;20109;-40
2023/11/03 10:31:49;;;;;;;3.88;0.88;;;13.00;99.90;;;;;;5051222;28;20041;-40
2023/11/03 10:34:19;;;;;;;4.80;0.90;;;13.00;99.90;;;;;;5052415;28;20032;-40
2023/11/03 10:36:48;;;;;;;4.25;1.13;;;13.10;99.90;;;;;;5050841;28;20037;-39
2023/11/03 10:39:14;;;;;;;4.00;1.00;;;13.10;99.90;;;;;;5050611;28;20502;-40
2023/11/03 10:41:41;;;;;;;1.42;0.50;;;13.10;99.90;;;;;;5053534;28;20028;-44
2023/11/03 10:44:11;;;;;;;2.33;0.70;;;13.10;99.90;;;;;;5055057;28;20025;-36
2023/11/03 10:46:41;;;;;;;3.15;0.90;;;13.10;99.90;;;;;;5055424;28;20021;-40
2023/11/03 10:49:16;;;;;;;1.88;0.80;;;13.20;99.90;;;;;;5055614;28;20444;-39
2023/11/03 10:51:51;;;;;;;1.70;0.70;;;13.20;99.90;;;;;;5055022;28;20029;-40
2023/11/03 10:54:41;;;;;;;1.30;0.70;;;13.20;99.90;;;;;;5055657;28;20028;-42
2023/11/03 10:57:10;;;;;;;2.17;0.68;;;13.20;99.90;;;;;;5053892;28;20082;-36
2023/11/03 10:59:39;;;;;;;2.20;0.80;;;13.20;99.90;;;;;;5054179;28;20576;-41
2023/11/03 11:02:10;;;;;;;2.10;0.70;;;13.20;99.90;;;;;;5054244;28;20029;-36
2023/11/03 11:04:56;;;;;;;2.30;0.77;;;13.20;99.90;;;;;;5054100;28;20112;-40
2023/11/03 11:07:25;;;;;;;3.63;0.80;;;13.20;99.90;;;;;;5053717;28;20024;-36
2023/11/03 11:09:52;;;;;;;7.22;0.88;;;13.20;99.90;;;;;;5054326;28;20032;-39
2023/11/03 11:12:18;;;;;;;2.55;1.20;;;13.10;99.90;;;;;;5053619;28;20032;-39
2023/11/03 11:14:44;;;;;;;2.35;1.27;;;13.00;99.90;;;;;;5053448;28;20025;-41
2023/11/03 11:17:16;;;;;;;6.32;2.78;;;12.70;99.90;;;;;;5053398;28;20351;-40
2023/11/03 11:19:46;;;;;;;3.20;1.98;;;;;;;;;;5054137;28;20112;-40
2023/11/03 11:22:19;;;;;;;4.47;2.20;;;;;;;;;;5035407;28;20029;-39
2023/11/03 11:24:45;;;;;;;1.35;0.60;;;;;;;;;;5035459;28;20372;-40
2023/11/03 11:27:25;;;;;;;1.35;0.40;;;;;;;;;;5053566;28;20025;-40
2023/11/03 11:30:01;;;;;;;1.88;0.70;;;;;;;;;;5053524;28;20108;-40
2023/11/03 11:32:27;;;;;;;2.13;0.85;;;;;;;;;;5035425;28;20079;-41
2023/11/03 11:34:54;;;;;;;2.88;0.93;;;;;;;;;;5053100;28;20032;-41
2023/11/03 11:37:32;;;;;;;0.50;0.30;;;;;;;;;;5053101;28;20474;-40
2023/11/03 11:39:59;;;;;;;0.70;0.30;;;;;;;;;;5053346;28;20057;-40
2023/11/03 11:42:27;;;;;;;1.65;0.57;;;;;;;;;;5053513;28;20031;-41
2023/11/03 11:44:54;;;;;;;2.20;0.68;;;;;;;;;;5053096;28;20544;-41
2023/11/03 11:47:23;;;;;;;2.00;1.15;;;;;;;;;;5052812;28;20421;-38
2023/11/03 11:49:50;;;;;;;1.33;0.50;;;;;;;;;;5052844;28;20441;-41
2023/11/03 11:52:16;;;;;;;1.85;0.50;;;;;;;;;;5052216;28;20029;-42
2023/11/03 11:54:42;;;;;;;1.55;0.40;;;;;;;;;;5052951;28;20067;-40
2023/11/03 11:57:09;;;;;;;2.05;0.50;;;;;;;;;;5053045;28;20486;-39
2023/11/03 11:59:35;;;;;;;1.58;0.30;;;;;;;;;;5052839;28;20032;-43
2023/11/03 12:02:02;;;;;;;2.97;0.70;;;;;;;;;;5052539;28;20017;-36
2023/11/03 12:04:29;;;;;;;0.57;0.25;;;;;;;;;;5052513;28;20017;-37
2023/11/03 12:06:55;;;;;;;0.82;0.50;;;;;;;;;;5052301;28;20390;-43
2023/11/03 12:09:21;;;;;;;1.48;0.30;;;;;;;;;;5052526;28;20495;-39
2023/11/03 12:11:47;;;;;;;1.33;0.55;;;;;;;;;;5052464;28;20033;-38
2023/11/03 12:14:14;;;;;;;1.67;0.73;;;;;;;;;;5053197;28;20096;-37
2023/11/03 12:16:40;;;;;;;0.55;0.32;;;;;;;;;;5052825;28;20035;-40
2023/11/03 12:19:08;;;;;;;4.15;0.57;;;;;;;;;;5052242;28;20104;-38
2023/11/03 12:21:35;;;;;;;1.92;0.50;;;;;;;;;;5052417;28;20025;-40
2023/11/03 12:24:03;;;;;;;1.67;0.50;;;;;;;;;;5052269;28;20082;-40
2023/11/03 12:26:30;;;;;;;1.10;0.47;;;;;;;;;;5052381;28;20048;-37
2023/11/03 12:29:16;;;;;;;1.90;0.57;;;;;;;;;;5052248;28;20478;-42
2023/11/03 12:31:43;;;;;;;1.98;0.88;;;;;;;;;;5052030;28;20082;-36
2023/11/03 12:34:09;;;;;;;2.08;0.57;;;;;;;;;;5053193;28;20125;-41
2023/11/03 12:36:37;;;;;;;1.67;0.47;;;;;;;;;;5052407;28;20025;-37
2023/11/03 12:39:06;;;;;;;1.65;0.45;;;;;;;;;;5053054;28;20547;-41
2023/11/03 12:41:32;;;;;;;1.17;0.40;;;;;;;;;;5053702;28;20029;-41
2023/11/03 12:43:58;;;;;;;6.30;0.68;;;;;;;;;;5052254;28;20017;-41
2023/11/03 12:46:25;;;;;;;2.35;0.70;;;;;;;;;;5052204;28;20048;-39
2023/11/03 12:49:05;;;;;;;4.85;0.60;;;;;;;;;;5051844;28;20021;-39
2023/11/03 12:51:32;;;;;;;4.20;0.77;;;;;;;;;;5051640;28;20021;-42
2023/11/03 12:53:58;;;;;;;1.98;0.68;;;;;;;;;;5051763;28;20021;-41
2023/11/03 12:56:24;;;;;;;0.80;0.65;;;;;;;;;;5051882;28;20052;-41
2023/11/03 12:58:51;;;;;;;1.80;0.50;;;;;;;;;;5052608;28;20033;-41
2023/11/03 13:01:17;;;;;;;4.45;1.02;;;;;;;;;;5053156;28;20053;-42